sensor_id;sensor_type;location;lat;lon;timestamp;pressure;altitude;pressure_sealevel;temperature;humidity
11468;BME280;5790;42.762;23.430;2023-04-15T00:01:20;73108.78;;;-142.66;84.28
11468;BME280;5790;42.762;23.430;2023-04-15T00:03:50;73076.13;;;-142.66;82.62
11468;BME280;5790;42.762;23.430;2023-04-15T00:06:18;73067.97;;;-142.66;80.74
11468;BME280;5790;42.762;23.430;2023-04-15T00:08:45;73055.72;;;-142.66;80.45
11468;BME280;5790;42.762;23.430;2023-04-15T00:11:13;73076.13;;;-142.66;82.97
11468;BME280;5790;42.762;23.430;2023-04-15T00:13:41;73090.44;;;-142.66;81.41
11468;BME280;5790;42.762;23.430;2023-04-15T00:16:09;73080.22;;;-142.66;81.07
11468;BME280;5790;42.762;23.430;2023-04-15T00:18:37;73078.19;;;-142.66;82.45
11468;BME280;5790;42.762;23.430;2023-04-15T00:21:04;73070.00;;;-142.66;81.73
11468;BME280;5790;42.762;23.430;2023-04-15T00:23:31;73065.94;;;-142.66;83.05
11468;BME280;5790;42.762;23.430;2023-04-15T00:25:58;73039.41;;;-142.66;79.43
11468;BME280;5790;42.762;23.430;2023-04-15T00:28:26;73023.06;;;-142.66;78.08
11468;BME280;5790;42.762;23.430;2023-04-15T00:30:54;73004.69;;;-142.66;77.38
11468;BME280;5790;42.762;23.430;2023-04-15T00:33:21;73002.66;;;-142.66;78.72
11468;BME280;5790;42.762;23.430;2023-04-15T00:35:48;72970.00;;;-142.66;79.06
11468;BME280;5790;42.762;23.430;2023-04-15T00:38:15;72959.78;;;-142.66;77.59
11468;BME280;5790;42.762;23.430;2023-04-15T00:40:42;72953.66;;;-142.66;77.11
11468;BME280;5790;42.762;23.430;2023-04-15T00:43:09;72972.03;;;-142.66;78.18
11468;BME280;5790;42.762;23.430;2023-04-15T00:45:38;72996.53;;;-142.66;78.47
11468;BME280;5790;42.762;23.430;2023-04-15T00:48:05;72984.28;;;-142.66;79.29
11468;BME280;5790;42.762;23.430;2023-04-15T00:50:33;72974.06;;;-142.66;79.88
11468;BME280;5790;42.762;23.430;2023-04-15T00:53:00;72972.03;;;-142.66;80.46
11468;BME280;5790;42.762;23.430;2023-04-15T00:55:27;72984.28;;;-142.66;81.95
11468;BME280;5790;42.762;23.430;2023-04-15T00:57:55;72986.31;;;-142.66;81.50
11468;BME280;5790;42.762;23.430;2023-04-15T01:00:22;72994.50;;;-142.66;80.46
11468;BME280;5790;42.762;23.430;2023-04-15T01:02:51;73006.72;;;-142.66;80.31
11468;BME280;5790;42.762;23.430;2023-04-15T01:05:18;73027.16;;;-142.66;81.63
11468;BME280;5790;42.762;23.430;2023-04-15T01:07:46;73041.44;;;-142.66;81.91
11468;BME280;5790;42.762;23.430;2023-04-15T01:10:13;73065.94;;;-142.66;83.51
11468;BME280;5790;42.762;23.430;2023-04-15T01:12:40;73116.97;;;-142.66;87.77
11468;BME280;5790;42.762;23.430;2023-04-15T01:15:08;73121.03;;;-142.66;87.94
11468;BME280;5790;42.762;23.430;2023-04-15T01:17:36;73149.63;;;-142.66;90.32
11468;BME280;5790;42.762;23.430;2023-04-15T01:20:06;73165.94;;;-142.66;91.35
11468;BME280;5790;42.762;23.430;2023-04-15T01:22:34;73143.50;;;-142.66;91.35
11468;BME280;5790;42.762;23.430;2023-04-15T01:25:05;73114.91;;;-142.66;90.13
11468;BME280;5790;42.762;23.430;2023-04-15T01:27:38;73106.75;;;-142.66;89.87
11468;BME280;5790;42.762;23.430;2023-04-15T01:30:07;73108.78;;;-142.66;89.57
11468;BME280;5790;42.762;23.430;2023-04-15T01:32:35;73131.25;;;-142.66;91.25
11468;BME280;5790;42.762;23.430;2023-04-15T01:35:02;73159.81;;;-142.66;93.60
11468;BME280;5790;42.762;23.430;2023-04-15T01:37:29;73184.31;;;-142.66;96.44
11468;BME280;5790;42.762;23.430;2023-04-15T01:39:56;73227.19;;;-142.66;98.02
11468;BME280;5790;42.762;23.430;2023-04-15T01:42:24;73263.94;;;-142.66;99.51
11468;BME280;5790;42.762;23.430;2023-04-15T01:44:53;73270.06;;;-142.66;100.00
11468;BME280;5790;42.762;23.430;2023-04-15T01:47:20;73308.84;;;-142.66;100.00
11468;BME280;5790;42.762;23.430;2023-04-15T01:49:47;73300.69;;;-142.66;100.00
11468;BME280;5790;42.762;23.430;2023-04-15T01:52:14;73306.78;;;-142.66;100.00
11468;BME280;5790;42.762;23.430;2023-04-15T01:54:42;73323.13;;;-142.66;99.72
11468;BME280;5790;42.762;23.430;2023-04-15T01:57:09;73341.50;;;-142.66;99.15
11468;BME280;5790;42.762;23.430;2023-04-15T01:59:36;73339.47;;;-142.66;98.13
11468;BME280;5790;42.762;23.430;2023-04-15T02:02:04;73349.66;;;-142.66;97.90
11468;BME280;5790;42.762;23.430;2023-04-15T02:04:31;73357.84;;;-142.66;97.15
11468;BME280;5790;42.762;23.430;2023-04-15T02:06:58;73357.84;;;-142.66;97.47
11468;BME280;5790;42.762;23.430;2023-04-15T02:09:26;73343.53;;;-142.66;96.64
11468;BME280;5790;42.762;23.430;2023-04-15T02:11:53;73310.88;;;-142.66;96.06
11468;BME280;5790;42.762;23.430;2023-04-15T02:14:20;73343.53;;;-142.66;96.83
11468;BME280;5790;42.762;23.430;2023-04-15T02:16:47;73321.09;;;-142.66;96.20
11468;BME280;5790;42.762;23.430;2023-04-15T02:19:15;73329.25;;;-142.66;96.91
11468;BME280;5790;42.762;23.430;2023-04-15T02:21:42;73306.78;;;-142.66;96.91
11468;BME280;5790;42.762;23.430;2023-04-15T02:24:09;73280.25;;;-142.66;96.07
11468;BME280;5790;42.762;23.430;2023-04-15T02:26:37;73261.88;;;-142.66;95.19
11468;BME280;5790;42.762;23.430;2023-04-15T02:29:04;73241.47;;;-142.66;92.50
11468;BME280;5790;42.762;23.430;2023-04-15T02:31:31;73265.97;;;-142.66;91.61
11468;BME280;5790;42.762;23.430;2023-04-15T02:34:01;73243.50;;;-142.66;91.19
11468;BME280;5790;42.762;23.430;2023-04-15T02:36:30;73239.44;;;-142.66;89.67
11468;BME280;5790;42.762;23.430;2023-04-15T02:38:59;73219.03;;;-142.66;88.99
11468;BME280;5790;42.762;23.430;2023-04-15T02:41:26;73253.72;;;-142.66;87.95
11468;BME280;5790;42.762;23.430;2023-04-15T02:43:53;73245.56;;;-142.66;87.73
11468;BME280;5790;42.762;23.430;2023-04-15T02:46:20;73223.09;;;-142.66;86.73
11468;BME280;5790;42.762;23.430;2023-04-15T02:48:47;73214.94;;;-142.66;85.37
11468;BME280;5790;42.762;23.430;2023-04-15T02:51:16;73212.91;;;-142.66;84.41
11468;BME280;5790;42.762;23.430;2023-04-15T02:53:45;73233.31;;;-142.66;83.52
11468;BME280;5790;42.762;23.430;2023-04-15T02:56:13;73241.47;;;-142.66;83.70
11468;BME280;5790;42.762;23.430;2023-04-15T02:58:42;73245.56;;;-142.66;84.25
11468;BME280;5790;42.762;23.430;2023-04-15T03:01:09;73241.47;;;-142.66;83.80
11468;BME280;5790;42.762;23.430;2023-04-15T03:03:36;73233.31;;;-142.66;83.11
11468;BME280;5790;42.762;23.430;2023-04-15T03:06:03;73239.44;;;-142.66;83.79
11468;BME280;5790;42.762;23.430;2023-04-15T03:08:30;73298.63;;;-142.66;86.04
11468;BME280;5790;42.762;23.430;2023-04-15T03:10:58;73298.63;;;-142.66;87.27
11468;BME280;5790;42.762;23.430;2023-04-15T03:13:27;73282.31;;;-142.66;87.58
11468;BME280;5790;42.762;23.430;2023-04-15T03:15:54;73294.56;;;-142.66;87.50
11468;BME280;5790;42.762;23.430;2023-04-15T03:18:21;73274.13;;;-142.66;87.70
11468;BME280;5790;42.762;23.430;2023-04-15T03:20:48;73300.69;;;-142.66;87.24
11468;BME280;5790;42.762;23.430;2023-04-15T03:23:15;73298.63;;;-142.66;86.21
11468;BME280;5790;42.762;23.430;2023-04-15T03:25:43;73323.13;;;-142.66;87.03
11468;BME280;5790;42.762;23.430;2023-04-15T03:28:12;73319.03;;;-142.66;87.61
11468;BME280;5790;42.762;23.430;2023-04-15T03:30:39;73319.03;;;-142.66;87.27
11468;BME280;5790;42.762;23.430;2023-04-15T03:33:06;73325.16;;;-142.66;87.04
11468;BME280;5790;42.762;23.430;2023-04-15T03:35:34;73319.03;;;-142.66;86.16
11468;BME280;5790;42.762;23.430;2023-04-15T03:38:01;73333.34;;;-142.66;85.97
11468;BME280;5790;42.762;23.430;2023-04-15T03:40:28;73337.41;;;-142.66;85.46
11468;BME280;5790;42.762;23.430;2023-04-15T03:42:55;73347.63;;;-142.66;85.28
11468;BME280;5790;42.762;23.430;2023-04-15T03:45:23;73357.84;;;-142.66;86.91
11468;BME280;5790;42.762;23.430;2023-04-15T03:47:50;73376.22;;;-142.66;88.32
11468;BME280;5790;42.762;23.430;2023-04-15T03:50:17;73355.78;;;-142.66;87.66
11468;BME280;5790;42.762;23.430;2023-04-15T03:52:45;73353.75;;;-142.66;87.03
11468;BME280;5790;42.762;23.430;2023-04-15T03:55:12;73382.34;;;-142.66;87.15
11468;BME280;5790;42.762;23.430;2023-04-15T03:57:39;73439.50;;;-142.66;88.77
11468;BME280;5790;42.762;23.430;2023-04-15T04:00:08;73453.78;;;-142.66;89.32
11468;BME280;5790;42.762;23.430;2023-04-15T04:02:36;73423.16;;;-142.66;89.55
11468;BME280;5790;42.762;23.430;2023-04-15T04:05:04;73415.00;;;-142.66;89.71
11468;BME280;5790;42.762;23.430;2023-04-15T04:07:31;73408.88;;;-142.66;90.09
11468;BME280;5790;42.762;23.430;2023-04-15T04:09:58;73406.81;;;-142.66;89.11
11468;BME280;5790;42.762;23.430;2023-04-15T04:12:25;73415.00;;;-142.66;88.60
11468;BME280;5790;42.762;23.430;2023-04-15T04:14:52;73394.56;;;-142.66;87.86
11468;BME280;5790;42.762;23.430;2023-04-15T04:17:19;73382.34;;;-142.66;87.10
11468;BME280;5790;42.762;23.430;2023-04-15T04:19:48;73390.50;;;-142.66;86.95
11468;BME280;5790;42.762;23.430;2023-04-15T04:22:15;73421.13;;;-142.66;88.10
11468;BME280;5790;42.762;23.430;2023-04-15T04:24:42;73435.41;;;-142.66;90.39
11468;BME280;5790;42.762;23.430;2023-04-15T04:27:09;73437.44;;;-142.66;91.71
11468;BME280;5790;42.762;23.430;2023-04-15T04:29:36;73441.53;;;-142.66;92.21
11468;BME280;5790;42.762;23.430;2023-04-15T04:32:03;73429.28;;;-142.66;92.39
11468;BME280;5790;42.762;23.430;2023-04-15T04:34:30;73412.94;;;-142.66;92.74
11468;BME280;5790;42.762;23.430;2023-04-15T04:36:59;73384.38;;;-142.66;92.61
11468;BME280;5790;42.762;23.430;2023-04-15T04:39:26;73370.06;;;-142.66;91.84
11468;BME280;5790;42.762;23.430;2023-04-15T04:41:53;73363.97;;;-142.66;91.79
11468;BME280;5790;42.762;23.430;2023-04-15T04:44:21;73339.47;;;-142.66;91.05
11468;BME280;5790;42.762;23.430;2023-04-15T04:46:48;73333.34;;;-142.66;91.97
11468;BME280;5790;42.762;23.430;2023-04-15T04:49:15;73335.38;;;-142.66;90.74
11468;BME280;5790;42.762;23.430;2023-04-15T04:51:42;73343.53;;;-142.66;90.99
11468;BME280;5790;42.762;23.430;2023-04-15T04:54:10;73333.34;;;-142.66;91.28
11468;BME280;5790;42.762;23.430;2023-04-15T04:56:38;73341.50;;;-142.66;91.88
11468;BME280;5790;42.762;23.430;2023-04-15T04:59:05;73335.38;;;-142.66;93.19
11468;BME280;5790;42.762;23.430;2023-04-15T05:01:32;73329.25;;;-142.66;93.33
11468;BME280;5790;42.762;23.430;2023-04-15T05:04:00;73335.38;;;-142.66;93.16
11468;BME280;5790;42.762;23.430;2023-04-15T05:06:29;73331.28;;;-142.66;93.85
11468;BME280;5790;42.762;23.430;2023-04-15T05:08:57;73331.28;;;-142.66;93.72
11468;BME280;5790;42.762;23.430;2023-04-15T05:11:25;73302.72;;;-142.66;93.95
11468;BME280;5790;42.762;23.430;2023-04-15T05:13:52;73278.22;;;-142.66;94.12
11468;BME280;5790;42.762;23.430;2023-04-15T05:16:20;73239.44;;;-142.66;92.99
11468;BME280;5790;42.762;23.430;2023-04-15T05:18:47;73219.03;;;-142.66;92.10
11468;BME280;5790;42.762;23.430;2023-04-15T05:21:13;73202.69;;;-142.66;90.19
11468;BME280;5790;42.762;23.430;2023-04-15T05:23:40;73219.03;;;-142.66;90.22
11468;BME280;5790;42.762;23.430;2023-04-15T05:26:07;73188.41;;;-142.66;89.14
11468;BME280;5790;42.762;23.430;2023-04-15T05:28:36;73172.06;;;-142.66;88.27
11468;BME280;5790;42.762;23.430;2023-04-15T05:31:03;73151.66;;;-142.66;88.45
11468;BME280;5790;42.762;23.430;2023-04-15T05:33:30;73119.00;;;-142.66;86.46
11468;BME280;5790;42.762;23.430;2023-04-15T05:35:57;73108.78;;;-142.66;84.03
11468;BME280;5790;42.762;23.430;2023-04-15T05:38:24;73072.06;;;-142.66;83.36
11468;BME280;5790;42.762;23.430;2023-04-15T05:40:51;73055.72;;;-142.66;81.86
11468;BME280;5790;42.762;23.430;2023-04-15T05:43:18;73010.81;;;-142.66;80.92
11468;BME280;5790;42.762;23.430;2023-04-15T05:45:47;73031.22;;;-142.66;80.12
11468;BME280;5790;42.762;23.430;2023-04-15T05:48:14;73021.03;;;-142.66;80.10
11468;BME280;5790;42.762;23.430;2023-04-15T05:50:41;72980.19;;;-142.66;79.02
11468;BME280;5790;42.762;23.430;2023-04-15T05:53:08;72959.78;;;-142.66;77.67
11468;BME280;5790;42.762;23.430;2023-04-15T05:55:36;72992.44;;;-142.66;77.33
11468;BME280;5790;42.762;23.430;2023-04-15T05:58:03;72963.88;;;-142.66;77.53
11468;BME280;5790;42.762;23.430;2023-04-15T06:00:30;73008.78;;;-142.66;77.72
11468;BME280;5790;42.762;23.430;2023-04-15T06:02:59;72974.06;;;-142.66;78.56
11468;BME280;5790;42.762;23.430;2023-04-15T06:05:26;72959.78;;;-142.66;79.16
11468;BME280;5790;42.762;23.430;2023-04-15T06:07:53;72965.91;;;-142.66;79.29
11468;BME280;5790;42.762;23.430;2023-04-15T06:10:20;72990.41;;;-142.66;79.13
11468;BME280;5790;42.762;23.430;2023-04-15T06:12:47;72978.16;;;-142.66;79.26
11468;BME280;5790;42.762;23.430;2023-04-15T06:15:14;72945.50;;;-142.66;78.03
11468;BME280;5790;42.762;23.430;2023-04-15T06:17:42;72902.63;;;-142.66;76.83
11468;BME280;5790;42.762;23.430;2023-04-15T06:20:11;72882.22;;;-142.66;74.45
11468;BME280;5790;42.762;23.430;2023-04-15T06:22:38;72859.78;;;-142.66;73.71
11468;BME280;5790;42.762;23.430;2023-04-15T06:25:06;72829.16;;;-142.66;73.13
11468;BME280;5790;42.762;23.430;2023-04-15T06:27:34;72831.19;;;-142.66;71.29
11468;BME280;5790;42.762;23.430;2023-04-15T06:30:01;72833.25;;;-142.66;71.48
11468;BME280;5790;42.762;23.430;2023-04-15T06:32:28;72810.78;;;-142.66;71.79
11468;BME280;5790;42.762;23.430;2023-04-15T06:34:55;72786.31;;;-142.66;70.70
11468;BME280;5790;42.762;23.430;2023-04-15T06:37:24;72759.75;;;-142.66;70.44
11468;BME280;5790;42.762;23.430;2023-04-15T06:39:51;72720.97;;;-142.66;69.16
11468;BME280;5790;42.762;23.430;2023-04-15T06:42:18;72700.56;;;-142.66;68.47
11468;BME280;5790;42.762;23.430;2023-04-15T06:44:45;72667.91;;;-142.66;66.68
11468;BME280;5790;42.762;23.430;2023-04-15T06:47:12;72643.44;;;-142.66;66.08
11468;BME280;5790;42.762;23.430;2023-04-15T06:49:39;72625.06;;;-142.66;65.54
11468;BME280;5790;42.762;23.430;2023-04-15T06:52:07;72631.19;;;-142.66;65.77
11468;BME280;5790;42.762;23.430;2023-04-15T06:54:37;72604.66;;;-142.66;65.43
11468;BME280;5790;42.762;23.430;2023-04-15T06:57:04;72588.31;;;-142.66;64.76
11468;BME280;5790;42.762;23.430;2023-04-15T06:59:32;72572.00;;;-142.66;64.56
11468;BME280;5790;42.762;23.430;2023-04-15T07:01:59;72561.78;;;-142.66;64.35
11468;BME280;5790;42.762;23.430;2023-04-15T07:04:26;72541.38;;;-142.66;64.22
11468;BME280;5790;42.762;23.430;2023-04-15T07:06:53;72539.34;;;-142.66;63.21
11468;BME280;5790;42.762;23.430;2023-04-15T07:09:21;72508.72;;;-142.66;62.47
11468;BME280;5790;42.762;23.430;2023-04-15T07:11:50;72500.56;;;-142.66;63.13
11468;BME280;5790;42.762;23.430;2023-04-15T07:14:17;72463.84;;;-142.66;62.15
11468;BME280;5790;42.762;23.430;2023-04-15T07:16:44;72461.78;;;-142.66;60.76
11468;BME280;5790;42.762;23.430;2023-04-15T07:19:11;72484.25;;;-142.66;62.31
11468;BME280;5790;42.762;23.430;2023-04-15T07:21:39;72467.91;;;-142.66;62.82
11468;BME280;5790;42.762;23.430;2023-04-15T07:24:06;72457.72;;;-142.66;60.78
11468;BME280;5790;42.762;23.430;2023-04-15T07:26:35;72463.84;;;-142.66;60.79
11468;BME280;5790;42.762;23.430;2023-04-15T07:29:03;72457.72;;;-142.66;60.81
11468;BME280;5790;42.762;23.430;2023-04-15T07:31:30;72459.75;;;-142.66;59.91
11468;BME280;5790;42.762;23.430;2023-04-15T07:33:57;72435.25;;;-142.66;60.37
11468;BME280;5790;42.762;23.430;2023-04-15T07:36:24;72447.50;;;-142.66;60.20
11468;BME280;5790;42.762;23.430;2023-04-15T07:38:51;72431.19;;;-142.66;60.39
11468;BME280;5790;42.762;23.430;2023-04-15T07:41:20;72416.91;;;-142.66;60.27
11468;BME280;5790;42.762;23.430;2023-04-15T07:43:47;72420.97;;;-142.66;59.17
11468;BME280;5790;42.762;23.430;2023-04-15T07:46:15;72429.13;;;-142.66;59.30
11468;BME280;5790;42.762;23.430;2023-04-15T07:48:42;72465.88;;;-142.66;59.41
11468;BME280;5790;42.762;23.430;2023-04-15T07:51:09;72455.66;;;-142.66;59.81
11468;BME280;5790;42.762;23.430;2023-04-15T07:53:37;72414.84;;;-142.66;60.50
11468;BME280;5790;42.762;23.430;2023-04-15T07:56:05;72392.41;;;-142.66;57.89
11468;BME280;5790;42.762;23.430;2023-04-15T07:58:32;72363.84;;;-142.66;58.61
11468;BME280;5790;42.762;23.430;2023-04-15T08:00:59;72369.97;;;-142.66;56.86
11468;BME280;5790;42.762;23.430;2023-04-15T08:03:28;72349.56;;;-142.66;57.08
11468;BME280;5790;42.762;23.430;2023-04-15T08:05:55;72343.44;;;-142.66;58.05
11468;BME280;5790;42.762;23.430;2023-04-15T08:08:22;72331.19;;;-142.66;56.38
11468;BME280;5790;42.762;23.430;2023-04-15T08:10:50;72329.13;;;-142.66;56.79
11468;BME280;5790;42.762;23.430;2023-04-15T08:13:17;72331.19;;;-142.66;55.73
11468;BME280;5790;42.762;23.430;2023-04-15T08:15:44;72318.94;;;-142.66;55.64
11468;BME280;5790;42.762;23.430;2023-04-15T08:18:11;72296.50;;;-142.66;54.39
11468;BME280;5790;42.762;23.430;2023-04-15T08:20:40;72263.84;;;-142.66;53.27
11468;BME280;5790;42.762;23.430;2023-04-15T08:23:07;72278.13;;;-142.66;53.60
11468;BME280;5790;42.762;23.430;2023-04-15T08:25:34;72263.84;;;-142.66;54.77
11468;BME280;5790;42.762;23.430;2023-04-15T08:28:03;72267.91;;;-142.66;54.54
11468;BME280;5790;42.762;23.430;2023-04-15T08:30:31;72280.16;;;-142.66;53.73
11468;BME280;5790;42.762;23.430;2023-04-15T08:32:59;72259.75;;;-142.66;52.42
11468;BME280;5790;42.762;23.430;2023-04-15T08:35:26;72290.38;;;-142.66;55.51
11468;BME280;5790;42.762;23.430;2023-04-15T08:37:55;72292.41;;;-142.66;53.04
11468;BME280;5790;42.762;23.430;2023-04-15T08:40:24;72274.03;;;-142.66;54.87
11468;BME280;5790;42.762;23.430;2023-04-15T08:42:58;72276.09;;;-142.66;52.46
11468;BME280;5790;42.762;23.430;2023-04-15T08:45:27;72278.13;;;-142.66;51.59
11468;BME280;5790;42.762;23.430;2023-04-15T08:47:55;72276.09;;;-142.66;52.36
11468;BME280;5790;42.762;23.430;2023-04-15T08:50:24;72269.97;;;-142.66;50.95
11468;BME280;5790;42.762;23.430;2023-04-15T08:52:55;72255.69;;;-142.66;52.99
11468;BME280;5790;42.762;23.430;2023-04-15T08:55:25;72235.28;;;-142.66;52.54
11468;BME280;5790;42.762;23.430;2023-04-15T08:57:54;72239.34;;;-142.66;51.14
11468;BME280;5790;42.762;23.430;2023-04-15T09:00:22;72235.28;;;-142.66;49.39
11468;BME280;5790;42.762;23.430;2023-04-15T09:02:49;72220.97;;;-142.66;50.09
11468;BME280;5790;42.762;23.430;2023-04-15T09:05:17;72206.69;;;-142.66;48.25
11468;BME280;5790;42.762;23.430;2023-04-15T09:07:46;72220.97;;;-142.66;44.45
11468;BME280;5790;42.762;23.430;2023-04-15T09:10:14;72249.56;;;-142.66;44.98
11468;BME280;5790;42.762;23.430;2023-04-15T09:12:42;72220.97;;;-142.66;46.28
11468;BME280;5790;42.762;23.430;2023-04-15T09:15:10;72202.63;;;-142.66;42.07
11468;BME280;5790;42.762;23.430;2023-04-15T09:17:41;72194.47;;;-142.66;40.73
11468;BME280;5790;42.762;23.430;2023-04-15T09:20:10;72186.28;;;-142.66;44.10
11468;BME280;5790;42.762;23.430;2023-04-15T09:22:38;72155.69;;;-142.66;45.35
11468;BME280;5790;42.762;23.430;2023-04-15T09:25:24;72129.16;;;-142.66;44.22
11468;BME280;5790;42.762;23.430;2023-04-15T09:27:53;72116.91;;;-142.66;38.62
11468;BME280;5790;42.762;23.430;2023-04-15T09:30:21;72102.63;;;-142.66;39.81
11468;BME280;5790;42.762;23.430;2023-04-15T09:32:49;72125.06;;;-142.66;39.51
11468;BME280;5790;42.762;23.430;2023-04-15T09:35:17;72143.44;;;-142.66;38.63
11468;BME280;5790;42.762;23.430;2023-04-15T09:37:44;72157.72;;;-142.66;38.00
11468;BME280;5790;42.762;23.430;2023-04-15T09:40:12;72169.97;;;-142.66;39.24
11468;BME280;5790;42.762;23.430;2023-04-15T09:43:02;72149.56;;;-142.66;39.65
11468;BME280;5790;42.762;23.430;2023-04-15T09:45:30;72129.16;;;-142.66;39.27
11468;BME280;5790;42.762;23.430;2023-04-15T09:47:58;72123.03;;;-142.66;40.34
11468;BME280;5790;42.762;23.430;2023-04-15T09:50:27;72121.00;;;-142.66;40.44
11468;BME280;5790;42.762;23.430;2023-04-15T09:52:55;72100.59;;;-142.66;39.43
11468;BME280;5790;42.762;23.430;2023-04-15T09:55:22;72106.72;;;-142.66;40.29
11468;BME280;5790;42.762;23.430;2023-04-15T09:57:49;72088.34;;;-142.66;39.96
11468;BME280;5790;42.762;23.430;2023-04-15T10:00:18;72078.13;;;-142.66;37.53
11468;BME280;5790;42.762;23.430;2023-04-15T10:02:46;72074.06;;;-142.66;38.70
11468;BME280;5790;42.762;23.430;2023-04-15T10:05:14;72100.59;;;-142.66;39.04
11468;BME280;5790;42.762;23.430;2023-04-15T10:07:43;72108.75;;;-142.66;39.40
11468;BME280;5790;42.762;23.430;2023-04-15T10:10:11;72102.63;;;-142.66;37.09
11468;BME280;5790;42.762;23.430;2023-04-15T10:12:40;72104.66;;;-142.66;38.06
11468;BME280;5790;42.762;23.430;2023-04-15T10:15:14;72076.09;;;-142.66;37.58
11468;BME280;5790;42.762;23.430;2023-04-15T10:17:44;72063.84;;;-142.66;37.70
11468;BME280;5790;42.762;23.430;2023-04-15T10:20:14;72049.56;;;-142.66;39.23
11468;BME280;5790;42.762;23.430;2023-04-15T10:22:44;72041.41;;;-142.66;35.66
11468;BME280;5790;42.762;23.430;2023-04-15T10:25:14;72031.19;;;-142.66;33.03
11468;BME280;5790;42.762;23.430;2023-04-15T10:27:42;72027.13;;;-142.66;36.48
11468;BME280;5790;42.762;23.430;2023-04-15T10:30:10;72023.03;;;-142.66;36.70
11468;BME280;5790;42.762;23.430;2023-04-15T10:32:38;72000.59;;;-142.66;34.00
11468;BME280;5790;42.762;23.430;2023-04-15T10:35:08;71992.44;;;-142.66;35.76
11468;BME280;5790;42.762;23.430;2023-04-15T10:37:38;71976.09;;;-142.66;36.01
11468;BME280;5790;42.762;23.430;2023-04-15T10:40:28;71978.16;;;-142.66;34.05
11468;BME280;5790;42.762;23.430;2023-04-15T10:42:57;71972.03;;;-142.66;37.28
11468;BME280;5790;42.762;23.430;2023-04-15T10:45:26;71972.03;;;-142.66;36.32
11468;BME280;5790;42.762;23.430;2023-04-15T10:47:57;71970.00;;;-142.66;38.85
11468;BME280;5790;42.762;23.430;2023-04-15T10:50:27;71970.00;;;-142.66;34.78
11468;BME280;5790;42.762;23.430;2023-04-15T10:52:55;71959.78;;;-142.66;35.01
11468;BME280;5790;42.762;23.430;2023-04-15T10:55:23;71974.06;;;-142.66;33.57
11468;BME280;5790;42.762;23.430;2023-04-15T10:57:52;71980.19;;;-142.66;34.26
11468;BME280;5790;42.762;23.430;2023-04-15T11:00:24;72002.63;;;-142.66;35.91
11468;BME280;5790;42.762;23.430;2023-04-15T11:02:53;72012.84;;;-142.66;34.03
11468;BME280;5790;42.762;23.430;2023-04-15T11:05:22;72006.72;;;-142.66;33.86
11468;BME280;5790;42.762;23.430;2023-04-15T11:08:12;72010.81;;;-142.66;34.56
11468;BME280;5790;42.762;23.430;2023-04-15T11:10:54;72014.88;;;-142.66;34.20
11468;BME280;5790;42.762;23.430;2023-04-15T11:13:26;72010.81;;;-142.66;33.43
11468;BME280;5790;42.762;23.430;2023-04-15T11:16:01;72012.84;;;-142.66;33.96
11468;BME280;5790;42.762;23.430;2023-04-15T11:18:32;71994.47;;;-142.66;33.97
11468;BME280;5790;42.762;23.430;2023-04-15T11:21:02;72000.59;;;-142.66;33.65
11468;BME280;5790;42.762;23.430;2023-04-15T11:23:34;72008.75;;;-142.66;33.49
11468;BME280;5790;42.762;23.430;2023-04-15T11:26:03;72008.75;;;-142.66;35.33
11468;BME280;5790;42.762;23.430;2023-04-15T11:28:34;71986.31;;;-142.66;37.38
11468;BME280;5790;42.762;23.430;2023-04-15T11:31:09;72014.88;;;-142.66;34.62
11468;BME280;5790;42.762;23.430;2023-04-15T11:33:37;72008.75;;;-142.66;32.94
11468;BME280;5790;42.762;23.430;2023-04-15T11:36:05;72016.91;;;-142.66;33.42
11468;BME280;5790;42.762;23.430;2023-04-15T11:38:34;72014.88;;;-142.66;32.65
11468;BME280;5790;42.762;23.430;2023-04-15T11:41:02;72010.81;;;-142.66;32.21
11468;BME280;5790;42.762;23.430;2023-04-15T11:43:31;72016.91;;;-142.66;32.28
11468;BME280;5790;42.762;23.430;2023-04-15T11:46:01;72010.81;;;-142.66;31.95
11468;BME280;5790;42.762;23.430;2023-04-15T11:48:30;72006.72;;;-142.66;31.67
11468;BME280;5790;42.762;23.430;2023-04-15T11:50:59;72008.75;;;-142.66;32.28
11468;BME280;5790;42.762;23.430;2023-04-15T11:53:37;71998.56;;;-142.66;31.63
11468;BME280;5790;42.762;23.430;2023-04-15T11:56:07;71990.41;;;-142.66;31.48
11468;BME280;5790;42.762;23.430;2023-04-15T11:58:35;71976.09;;;-142.66;31.65
11468;BME280;5790;42.762;23.430;2023-04-15T12:01:05;71990.41;;;-142.66;31.05
11468;BME280;5790;42.762;23.430;2023-04-15T12:03:36;71974.06;;;-142.66;32.45
11468;BME280;5790;42.762;23.430;2023-04-15T12:06:08;71939.38;;;-142.66;32.52
11468;BME280;5790;42.762;23.430;2023-04-15T12:09:06;71933.25;;;-142.66;32.03
11468;BME280;5790;42.762;23.430;2023-04-15T12:11:36;71923.06;;;-142.66;32.18
11468;BME280;5790;42.762;23.430;2023-04-15T12:14:06;71933.25;;;-142.66;30.81
11468;BME280;5790;42.762;23.430;2023-04-15T12:16:35;71935.31;;;-142.66;30.44
11468;BME280;5790;42.762;23.430;2023-04-15T12:19:05;71921.00;;;-142.66;30.75
11468;BME280;5790;42.762;23.430;2023-04-15T12:21:34;71933.25;;;-142.66;31.16
11468;BME280;5790;42.762;23.430;2023-04-15T12:24:05;71929.19;;;-142.66;31.93
11468;BME280;5790;42.762;23.430;2023-04-15T12:26:35;71931.22;;;-142.66;31.35
11468;BME280;5790;42.762;23.430;2023-04-15T12:29:04;71933.25;;;-142.66;30.93
11468;BME280;5790;42.762;23.430;2023-04-15T12:31:31;71925.09;;;-142.66;31.29
11468;BME280;5790;42.762;23.430;2023-04-15T12:33:59;71921.00;;;-142.66;30.75
11468;BME280;5790;42.762;23.430;2023-04-15T12:36:27;71910.81;;;-142.66;31.71
11468;BME280;5790;42.762;23.430;2023-04-15T12:38:54;71898.56;;;-142.66;31.20
11468;BME280;5790;42.762;23.430;2023-04-15T12:41:23;71884.28;;;-142.66;30.41
11468;BME280;5790;42.762;23.430;2023-04-15T12:43:50;71892.44;;;-142.66;30.95
11468;BME280;5790;42.762;23.430;2023-04-15T12:46:18;71896.53;;;-142.66;32.52